Time;durP1;ratioP1;P1;durP2;ratioP2;P2;SDS_P1;SDS_P2;PMS_P1;PMS_P2;Temp;Humidity;BMP_temperature;BMP_pressure;BME280_temperature;BME280_humidity;BME280_pressure;Samples;Min_cycle;Max_cycle;Signal;HPM_P1;HPM_P2
2022/03/23 00:02:03;;;;;;;5.55;5.05;;;18.30;38.40;;;;;;6187017;23;20180;-63
2022/03/23 00:04:32;;;;;;;6.18;5.57;;;18.20;38.30;;;;;;6187721;23;20234;-63
2022/03/23 00:07:00;;;;;;;6.47;5.43;;;18.20;38.30;;;;;;6186990;23;20192;-63
2022/03/23 00:09:27;;;;;;;6.90;6.13;;;18.20;38.30;;;;;;6187198;23;20243;-63
2022/03/23 00:11:54;;;;;;;6.53;5.80;;;18.20;38.30;;;;;;6160318;23;20202;-63
2022/03/23 00:14:22;;;;;;;6.32;5.72;;;18.10;38.30;;;;;;6160663;23;20196;-63
2022/03/23 00:16:50;;;;;;;6.20;5.22;;;18.10;38.30;;;;;;6160722;23;20179;-63
2022/03/23 00:19:17;;;;;;;5.90;5.40;;;18.10;38.30;;;;;;6186812;23;20240;-63
2022/03/23 00:21:46;;;;;;;6.50;5.45;;;18.10;39.10;;;;;;6160510;23;20173;-63
2022/03/23 00:24:13;;;;;;;6.15;5.38;;;18.10;38.50;;;;;;6187072;23;20262;-63
2022/03/23 00:26:40;;;;;;;8.18;5.70;;;18.00;38.30;;;;;;6160808;23;20222;-63
2022/03/23 00:29:08;;;;;;;7.03;5.50;;;18.00;38.30;;;;;;6160397;23;20172;-63
2022/03/23 00:31:35;;;;;;;5.55;5.05;;;18.00;38.30;;;;;;6185246;23;20239;-63
2022/03/23 00:34:02;;;;;;;6.30;5.40;;;17.90;38.30;;;;;;6185572;23;20212;-63
2022/03/23 00:36:29;;;;;;;5.95;5.35;;;17.90;38.30;;;;;;6186882;23;20165;-63
2022/03/23 00:38:58;;;;;;;5.90;5.35;;;17.90;38.30;;;;;;6185462;23;20176;-63
2022/03/23 00:41:26;;;;;;;6.43;5.82;;;17.90;38.20;;;;;;6187306;23;20188;-63
2022/03/23 00:43:53;;;;;;;5.80;5.30;;;17.90;38.20;;;;;;6160492;23;20246;-63
2022/03/23 00:46:22;;;;;;;5.57;5.07;;;17.90;38.20;;;;;;6187904;23;20160;-63
2022/03/23 00:48:53;;;;;;;5.97;5.47;;;17.90;38.90;;;;;;6186295;23;20188;-63
2022/03/23 00:51:20;;;;;;;5.95;5.45;;;17.80;38.30;;;;;;6185491;23;20516;-63
2022/03/23 00:53:47;;;;;;;6.05;5.45;;;17.80;38.20;;;;;;6187057;23;20187;-63
2022/03/23 00:56:16;;;;;;;6.53;5.93;;;17.80;38.20;;;;;;6185441;23;20283;-63
2022/03/23 00:58:44;;;;;;;6.15;5.55;;;17.80;38.30;;;;;;6185296;23;20234;-63
2022/03/23 01:01:11;;;;;;;5.40;4.95;;;17.80;38.10;;;;;;6187153;23;20165;-63
2022/03/23 01:03:39;;;;;;;5.80;5.25;;;17.70;38.20;;;;;;6184983;23;20275;-63
2022/03/23 01:06:07;;;;;;;5.88;5.18;;;17.70;38.30;;;;;;6186591;23;20239;-63
2022/03/23 01:08:34;;;;;;;5.97;5.47;;;17.70;38.20;;;;;;6159959;23;20183;-63
2022/03/23 01:11:01;;;;;;;8.60;5.60;;;17.70;38.00;;;;;;6160097;23;20538;-63
2022/03/23 01:13:30;;;;;;;5.78;5.28;;;17.70;38.10;;;;;;6186283;23;20570;-63
2022/03/23 01:15:58;;;;;;;6.30;5.70;;;17.70;38.10;;;;;;6159875;23;20601;-63
2022/03/23 01:18:25;;;;;;;6.35;5.70;;;17.70;38.20;;;;;;6159825;23;20204;-63
2022/03/23 01:20:52;;;;;;;5.65;5.20;;;17.70;38.10;;;;;;6159800;23;20180;-63
2022/03/23 01:23:19;;;;;;;5.82;5.32;;;17.60;38.00;;;;;;6186126;23;20212;-63
2022/03/23 01:25:47;;;;;;;6.28;5.68;;;17.60;38.10;;;;;;6159985;23;20176;-63
2022/03/23 01:28:13;;;;;;;6.20;5.70;;;17.60;38.00;;;;;;6186222;23;20199;-63
2022/03/23 01:30:42;;;;;;;6.20;5.60;;;17.60;38.10;;;;;;6184710;23;20262;-63
2022/03/23 01:33:09;;;;;;;6.60;6.00;;;17.60;38.20;;;;;;6159694;23;20582;-63
2022/03/23 01:35:36;;;;;;;6.90;6.30;;;17.50;38.10;;;;;;6184399;23;20200;-63
2022/03/23 01:38:04;;;;;;;7.13;5.95;;;17.50;38.20;;;;;;6159559;23;20180;-63
2022/03/23 01:40:31;;;;;;;6.10;5.60;;;17.50;38.20;;;;;;6159958;23;20259;-63
2022/03/23 01:42:58;;;;;;;6.40;5.90;;;17.50;38.20;;;;;;6184478;23;20254;-63
2022/03/23 01:45:25;;;;;;;6.80;6.20;;;17.50;38.10;;;;;;6159768;23;20172;-63
2022/03/23 01:47:54;;;;;;;6.00;5.50;;;17.50;38.20;;;;;;6186165;23;20174;-63
2022/03/23 01:50:22;;;;;;;6.10;5.57;;;17.40;38.20;;;;;;6159645;23;20227;-63
2022/03/23 01:52:49;;;;;;;7.55;6.35;;;17.40;38.20;;;;;;6185934;23;20196;-63
2022/03/23 01:55:17;;;;;;;6.38;5.78;;;17.40;38.30;;;;;;6159535;23;20199;-63
2022/03/23 01:57:46;;;;;;;6.60;6.03;;;17.40;38.30;;;;;;6185870;23;20618;-63
2022/03/23 02:00:15;;;;;;;7.40;6.70;;;17.40;38.20;;;;;;6185927;23;20203;-63
2022/03/23 02:02:42;;;;;;;7.25;6.60;;;17.40;38.30;;;;;;6186031;23;20259;-63
2022/03/23 02:05:14;;;;;;;7.18;6.47;;;17.30;38.20;;;;;;6184330;23;20215;-63
2022/03/23 02:07:49;;;;;;;6.53;5.93;;;17.30;38.20;;;;;;6184588;23;20168;-63
2022/03/23 02:10:16;;;;;;;6.53;5.93;;;17.30;38.30;;;;;;6185807;23;20494;-63
2022/03/23 02:13:05;;;;;;;6.97;6.38;;;17.30;38.10;;;;;;6184306;23;20226;-63
2022/03/23 02:15:32;;;;;;;6.80;6.20;;;17.30;38.20;;;;;;6185652;23;20211;-63
2022/03/23 02:17:59;;;;;;;6.78;6.18;;;17.30;38.20;;;;;;6161542;23;20204;-63
2022/03/23 02:20:28;;;;;;;7.88;6.88;;;17.30;38.20;;;;;;6184994;23;20234;-66
2022/03/23 02:22:56;;;;;;;6.97;6.32;;;17.30;38.20;;;;;;6179067;23;20248;-66
2022/03/23 02:25:26;;;;;;;7.03;6.32;;;17.20;38.20;;;;;;6159565;23;20176;-66
2022/03/23 02:27:54;;;;;;;6.65;6.03;;;17.30;38.40;;;;;;6185619;23;20575;-66
2022/03/23 02:30:22;;;;;;;6.72;6.07;;;17.20;38.10;;;;;;6159103;23;20630;-66
2022/03/23 02:32:49;;;;;;;7.28;6.50;;;17.20;38.20;;;;;;6159224;23;20207;-66
2022/03/23 02:35:16;;;;;;;6.70;6.00;;;17.20;38.20;;;;;;6186860;23;20168;-66
2022/03/23 02:37:43;;;;;;;7.50;6.80;;;17.20;38.30;;;;;;6189238;23;20210;-66
2022/03/23 02:40:12;;;;;;;6.85;6.25;;;17.20;38.30;;;;;;6187863;23;20199;-66
2022/03/23 02:42:39;;;;;;;6.72;6.18;;;17.20;38.40;;;;;;6162505;23;20210;-66
2022/03/23 02:45:07;;;;;;;7.20;6.50;;;17.10;38.20;;;;;;6189215;23;20247;-68
2022/03/23 02:47:35;;;;;;;7.07;6.47;;;17.10;38.20;;;;;;6162609;23;20171;-69
2022/03/23 02:50:02;;;;;;;7.28;6.60;;;17.10;38.20;;;;;;6162581;23;20236;-68
2022/03/23 02:52:31;;;;;;;7.63;7.00;;;17.10;38.90;;;;;;6189054;23;20191;-69
2022/03/23 03:03:35;;;;;;;7.65;6.85;;;17.00;38.20;;;;;;6162484;23;20261;-69
2022/03/23 03:06:04;;;;;;;6.93;6.30;;;17.00;38.30;;;;;;6162464;23;20251;-68
2022/03/23 03:08:47;;;;;;;7.28;6.63;;;17.00;38.30;;;;;;6162418;23;20226;-68
2022/03/23 03:11:15;;;;;;;7.40;6.70;;;17.00;38.20;;;;;;6189031;23;20148;-68
2022/03/23 03:13:44;;;;;;;7.93;7.22;;;17.00;38.10;;;;;;6187361;23;20230;-69
2022/03/23 03:16:11;;;;;;;8.93;6.47;;;17.00;38.20;;;;;;6162555;23;20196;-69
2022/03/23 03:18:38;;;;;;;6.93;6.22;;;17.00;38.30;;;;;;6188628;23;20164;-68
2022/03/23 03:21:06;;;;;;;7.10;6.47;;;17.00;38.20;;;;;;6188694;23;20156;-69
2022/03/23 03:23:34;;;;;;;6.95;6.25;;;17.00;38.20;;;;;;6187157;23;20215;-69
2022/03/23 03:26:05;;;;;;;7.85;7.05;;;17.00;38.40;;;;;;6162274;23;20474;-68
2022/03/23 03:28:33;;;;;;;7.60;6.90;;;16.90;38.30;;;;;;6162248;23;20514;-68
2022/03/23 03:31:02;;;;;;;7.70;6.50;;;16.90;38.20;;;;;;6187289;23;20614;-68
2022/03/23 03:33:30;;;;;;;7.45;6.72;;;16.90;38.20;;;;;;6188520;23;20246;-69
2022/03/23 03:35:57;;;;;;;8.77;7.13;;;16.90;38.20;;;;;;6162242;23;20172;-68
2022/03/23 03:38:24;;;;;;;8.52;7.35;;;16.90;38.10;;;;;;6189021;23;20251;-68
2022/03/23 03:40:52;;;;;;;7.22;6.55;;;16.90;38.20;;;;;;6187202;23;20178;-69
2022/03/23 03:43:44;;;;;;;7.60;6.82;;;16.90;38.20;;;;;;6188785;23;20198;-69
2022/03/23 03:46:13;;;;;;;6.63;6.05;;;16.80;38.00;;;;;;6188581;23;20169;-68
2022/03/23 03:48:41;;;;;;;7.47;6.88;;;16.90;38.30;;;;;;6185575;23;20230;-68
2022/03/23 03:51:09;;;;;;;7.68;6.88;;;16.80;38.20;;;;;;6185679;23;20526;-68
2022/03/23 03:53:36;;;;;;;7.60;6.90;;;16.80;38.20;;;;;;6187062;23;20195;-69
2022/03/23 03:56:04;;;;;;;7.53;6.85;;;16.80;38.20;;;;;;6166446;22;20195;-73
2022/03/23 03:58:30;;;;;;;7.30;6.65;;;16.80;38.20;;;;;;6216924;23;20195;-73
2022/03/23 04:00:58;;;;;;;7.57;6.88;;;16.80;38.20;;;;;;6190873;23;20203;-73
2022/03/23 04:03:27;;;;;;;7.10;6.47;;;16.80;38.30;;;;;;6191347;23;20175;-73
2022/03/23 04:05:53;;;;;;;8.18;7.40;;;16.80;38.20;;;;;;6191513;23;20171;-73
2022/03/23 04:08:20;;;;;;;7.80;7.00;;;16.80;38.30;;;;;;6191361;23;20171;-73
2022/03/23 04:10:47;;;;;;;7.85;7.13;;;16.70;38.20;;;;;;6218022;23;20167;-73
2022/03/23 04:13:14;;;;;;;8.10;7.30;;;16.70;38.20;;;;;;6191043;23;20603;-73
2022/03/23 04:15:41;;;;;;;7.82;7.13;;;16.70;38.30;;;;;;6190998;23;20231;-73
2022/03/23 04:18:09;;;;;;;7.53;6.82;;;16.70;38.20;;;;;;6191334;23;20171;-73
2022/03/23 04:20:37;;;;;;;7.57;6.88;;;16.70;38.40;;;;;;6191070;23;20168;-73
2022/03/23 04:23:04;;;;;;;7.35;6.75;;;16.70;38.20;;;;;;6191029;23;20171;-73
2022/03/23 04:25:31;;;;;;;8.02;7.13;;;16.70;38.30;;;;;;6191634;23;20251;-73
2022/03/23 04:27:59;;;;;;;8.05;7.40;;;16.70;38.20;;;;;;6191820;23;20484;-73
2022/03/23 04:30:31;;;;;;;10.38;7.75;;;16.70;38.30;;;;;;6191323;23;20219;-73
2022/03/23 04:32:58;;;;;;;7.78;7.00;;;16.60;38.70;;;;;;6191833;23;20274;-74
2022/03/23 04:35:26;;;;;;;7.75;7.05;;;16.70;38.20;;;;;;6191027;23;20510;-74
2022/03/23 04:37:55;;;;;;;7.65;6.95;;;16.70;38.30;;;;;;6191195;23;20584;-74
2022/03/23 04:40:22;;;;;;;7.82;7.03;;;16.70;38.50;;;;;;6190971;23;20211;-74
2022/03/23 04:42:50;;;;;;;7.50;6.80;;;16.70;38.40;;;;;;6191067;23;20396;-74
2022/03/23 04:45:17;;;;;;;7.72;7.00;;;16.60;38.30;;;;;;6191585;23;20179;-74
2022/03/23 04:47:45;;;;;;;8.38;7.57;;;16.60;38.20;;;;;;6191634;23;20172;-74
2022/03/23 04:50:12;;;;;;;7.97;6.82;;;16.70;38.30;;;;;;6191448;23;20218;-73
2022/03/23 04:52:39;;;;;;;8.10;7.40;;;16.70;38.40;;;;;;6191395;23;20237;-74
2022/03/23 04:55:09;;;;;;;7.65;6.95;;;16.70;38.90;;;;;;6191859;23;20218;-74
2022/03/23 04:57:37;;;;;;;7.85;7.05;;;16.70;38.30;;;;;;6192811;23;20171;-73
2022/03/23 05:00:05;;;;;;;7.75;7.05;;;16.60;38.20;;;;;;6191729;23;20621;-73
2022/03/23 05:02:32;;;;;;;8.00;7.30;;;16.60;38.40;;;;;;6192361;23;20203;-73
2022/03/23 05:04:59;;;;;;;8.60;7.10;;;16.60;38.20;;;;;;6191404;23;20167;-73
2022/03/23 05:07:26;;;;;;;7.85;7.20;;;16.60;38.20;;;;;;6191249;23;20198;-73
2022/03/23 05:09:53;;;;;;;7.70;7.00;;;16.70;38.40;;;;;;6218063;23;20186;-73
2022/03/23 05:12:22;;;;;;;7.82;7.13;;;16.60;38.20;;;;;;6217349;23;20167;-74
2022/03/23 05:14:49;;;;;;;8.35;7.65;;;16.60;38.20;;;;;;6191262;23;20192;-74
2022/03/23 05:17:16;;;;;;;8.23;7.43;;;16.60;38.20;;;;;;6190562;23;20171;-73
2022/03/23 05:19:44;;;;;;;8.50;7.70;;;16.60;38.30;;;;;;6190338;23;20191;-74
2022/03/23 05:22:12;;;;;;;8.00;7.28;;;16.70;38.20;;;;;;6190348;23;20179;-74
2022/03/23 05:24:40;;;;;;;8.20;7.40;;;16.70;38.20;;;;;;6190217;23;20172;-74
2022/03/23 05:27:06;;;;;;;8.40;7.60;;;16.70;38.00;;;;;;6190521;23;20176;-74
2022/03/23 05:29:35;;;;;;;8.77;7.68;;;16.70;38.00;;;;;;6190041;23;20196;-73
2022/03/23 05:32:03;;;;;;;8.55;7.65;;;16.70;38.00;;;;;;6190124;23;20519;-74
2022/03/23 05:34:30;;;;;;;8.13;7.43;;;16.80;38.10;;;;;;6216922;23;20183;-73
2022/03/23 05:36:57;;;;;;;7.82;7.13;;;16.70;37.90;;;;;;6190267;23;20724;-74
2022/03/23 05:41:56;;;;;;;8.52;7.72;;;16.80;37.80;;;;;;6179446;23;20613;-70
2022/03/23 05:44:22;;;;;;;8.88;8.07;;;16.80;38.10;;;;;;6186817;23;20188;-70
2022/03/23 05:46:51;;;;;;;8.77;7.88;;;16.90;37.60;;;;;;6160330;23;20490;-71
2022/03/23 05:49:18;;;;;;;9.02;8.23;;;16.90;37.70;;;;;;6187029;23;20195;-70
2022/03/23 05:51:45;;;;;;;8.68;7.90;;;16.90;37.70;;;;;;6186604;23;20172;-71
2022/03/23 05:54:12;;;;;;;8.23;7.43;;;16.90;37.90;;;;;;6160578;23;20198;-71
2022/03/23 05:56:39;;;;;;;9.50;8.43;;;16.90;38.00;;;;;;6160582;23;20232;-71
2022/03/23 05:59:06;;;;;;;8.80;8.00;;;17.00;37.80;;;;;;6160884;23;20278;-71
2022/03/23 06:01:34;;;;;;;8.45;7.55;;;17.00;37.90;;;;;;6160192;23;20203;-71
2022/03/23 06:04:03;;;;;;;8.65;7.85;;;17.00;37.70;;;;;;6184889;23;20177;-71
2022/03/23 06:06:30;;;;;;;9.52;8.55;;;17.10;37.80;;;;;;6160247;23;20209;-71
2022/03/23 06:08:57;;;;;;;8.60;7.80;;;17.10;37.80;;;;;;6160073;23;20202;-71
2022/03/23 06:11:25;;;;;;;8.18;7.47;;;17.10;37.70;;;;;;6184671;23;20212;-71
2022/03/23 06:13:52;;;;;;;9.63;8.63;;;17.10;37.70;;;;;;6184708;23;20243;-71
2022/03/23 06:16:19;;;;;;;9.23;8.32;;;17.20;37.60;;;;;;6160285;23;20172;-71
2022/03/23 06:18:47;;;;;;;8.60;7.80;;;17.30;37.80;;;;;;6184519;23;20191;-71
2022/03/23 06:21:16;;;;;;;9.52;8.35;;;17.20;37.50;;;;;;6186521;23;20476;-71
2022/03/23 06:23:43;;;;;;;8.52;7.72;;;17.20;37.90;;;;;;6160374;23;20172;-71
2022/03/23 06:26:10;;;;;;;9.32;8.52;;;17.20;37.70;;;;;;6159979;23;20176;-71
2022/03/23 06:28:37;;;;;;;8.70;7.80;;;17.30;37.70;;;;;;6186567;23;20527;-71
2022/03/23 06:31:04;;;;;;;9.25;8.35;;;17.30;37.70;;;;;;6185326;23;20176;-72
2022/03/23 06:33:31;;;;;;;8.75;7.97;;;17.30;37.60;;;;;;6186241;23;20180;-71
2022/03/23 06:35:58;;;;;;;8.95;7.95;;;17.30;37.50;;;;;;6184654;23;20172;-71
2022/03/23 06:38:27;;;;;;;9.38;7.68;;;17.30;37.40;;;;;;6184767;23;20187;-71
2022/03/23 06:40:54;;;;;;;8.68;7.88;;;17.40;37.50;;;;;;6160006;23;20191;-71
2022/03/23 06:43:21;;;;;;;8.00;7.30;;;17.40;37.30;;;;;;6159792;23;20251;-72
2022/03/23 06:45:48;;;;;;;8.20;7.50;;;17.40;37.10;;;;;;6185237;23;20183;-73
2022/03/23 06:48:15;;;;;;;9.55;8.30;;;17.50;37.10;;;;;;6168071;22;22096;-70
2022/03/23 06:53:17;;;;;;;9.43;8.63;;;17.70;36.40;;;;;;6186080;23;20254;-54
2022/03/23 06:55:45;;;;;;;8.88;8.07;;;17.80;36.20;;;;;;6186800;23;20168;-54
2022/03/23 06:58:13;;;;;;;9.00;8.20;;;17.90;35.90;;;;;;6184164;23;20541;-54
2022/03/23 07:00:40;;;;;;;9.88;8.88;;;18.10;35.50;;;;;;6159249;23;20168;-54
2022/03/23 07:03:08;;;;;;;9.38;8.45;;;18.20;35.50;;;;;;6159158;23;20212;-54
2022/03/23 07:05:36;;;;;;;8.07;7.30;;;18.30;35.20;;;;;;6185664;23;20167;-53
2022/03/23 07:10:50;;;;;;;8.90;8.00;;;18.60;34.70;;;;;;6186170;23;20148;-54
2022/03/23 07:13:17;;;;;;;8.88;8.07;;;18.80;34.70;;;;;;6185399;23;20252;-54
2022/03/23 07:15:46;;;;;;;8.40;7.70;;;19.10;34.50;;;;;;6183737;23;20195;-54
2022/03/23 07:18:14;;;;;;;9.30;8.45;;;19.20;34.60;;;;;;6159095;23;20179;-54
2022/03/23 07:20:41;;;;;;;10.77;9.23;;;19.50;33.80;;;;;;6159006;23;20179;-54
2022/03/23 07:23:08;;;;;;;9.07;8.23;;;19.70;33.40;;;;;;6185032;23;20270;-54
2022/03/23 07:25:35;;;;;;;10.38;9.35;;;19.90;33.20;;;;;;6185576;23;20224;-54
2022/03/23 07:28:05;;;;;;;9.80;8.80;;;20.10;32.90;;;;;;6160806;23;20173;-54
2022/03/23 07:30:33;;;;;;;10.32;9.32;;;20.30;32.70;;;;;;6187098;23;20199;-54
2022/03/23 07:33:01;;;;;;;10.50;9.38;;;20.40;32.40;;;;;;6185495;23;20673;-54
2022/03/23 07:35:28;;;;;;;9.75;8.40;;;20.50;32.20;;;;;;6160471;23;20348;-54
2022/03/23 07:37:55;;;;;;;10.05;9.05;;;20.60;32.10;;;;;;6185380;23;20707;-54
2022/03/23 07:40:22;;;;;;;9.68;8.70;;;20.70;31.90;;;;;;6187000;23;20246;-54
2022/03/23 07:42:50;;;;;;;9.73;8.88;;;20.90;31.90;;;;;;6186037;23;20196;-54
2022/03/23 07:45:18;;;;;;;9.15;8.20;;;21.00;31.70;;;;;;6185223;23;20172;-54
2022/03/23 07:47:45;;;;;;;9.52;8.70;;;21.10;31.50;;;;;;6186924;23;20164;-54
2022/03/23 07:50:12;;;;;;;9.00;8.20;;;21.20;31.30;;;;;;6185091;23;20296;-54
2022/03/23 07:52:40;;;;;;;11.07;9.95;;;21.30;31.20;;;;;;6186703;23;20510;-54
2022/03/23 07:55:08;;;;;;;10.20;9.30;;;21.40;30.80;;;;;;6185137;23;20188;-54
2022/03/23 07:57:35;;;;;;;10.00;9.10;;;21.50;30.80;;;;;;6160596;23;20176;-54
2022/03/23 08:00:03;;;;;;;9.82;8.93;;;21.60;30.70;;;;;;6186686;23;20205;-54
2022/03/23 08:02:41;;;;;;;11.50;10.30;;;21.70;30.60;;;;;;6186713;23;20203;-54
2022/03/23 08:05:09;;;;;;;9.70;8.80;;;21.80;30.50;;;;;;6160332;23;20218;-54
2022/03/23 08:07:36;;;;;;;9.30;8.50;;;21.80;30.40;;;;;;6187039;23;20247;-54
2022/03/23 08:10:04;;;;;;;8.98;8.18;;;21.90;30.30;;;;;;6160439;23;20192;-54
2022/03/23 08:12:32;;;;;;;9.55;8.50;;;22.00;30.40;;;;;;6186576;23;20168;-54
2022/03/23 08:14:59;;;;;;;8.65;7.80;;;22.10;30.30;;;;;;6186708;23;20180;-54
2022/03/23 08:17:26;;;;;;;8.40;7.65;;;22.20;30.20;;;;;;6160182;23;20195;-54
2022/03/23 08:22:36;;;;;;;9.32;8.40;;;22.40;30.20;;;;;;6148279;23;20483;-54
2022/03/23 08:25:03;;;;;;;9.35;8.43;;;22.40;30.00;;;;;;6185233;23;20176;-54
2022/03/23 08:27:31;;;;;;;8.73;7.90;;;22.50;30.00;;;;;;6186533;23;20172;-54
2022/03/23 08:29:58;;;;;;;9.18;8.27;;;22.50;29.90;;;;;;6184847;23;20230;-54
2022/03/23 08:32:26;;;;;;;8.00;7.30;;;22.60;29.90;;;;;;6186744;23;20192;-54
2022/03/23 08:34:54;;;;;;;9.00;7.85;;;22.60;29.80;;;;;;6186354;23;20550;-54
2022/03/23 08:37:22;;;;;;;8.55;7.72;;;22.70;29.70;;;;;;6159915;23;20176;-54
2022/03/23 08:39:50;;;;;;;9.02;8.07;;;22.80;29.70;;;;;;6159936;23;20642;-54
2022/03/23 08:42:17;;;;;;;8.13;7.43;;;22.80;29.70;;;;;;6159974;23;20172;-53
2022/03/23 08:44:45;;;;;;;8.57;7.78;;;22.90;29.80;;;;;;6159764;23;20188;-54
2022/03/23 08:47:12;;;;;;;8.45;7.75;;;23.00;29.80;;;;;;6184648;23;20172;-54
2022/03/23 08:49:39;;;;;;;8.13;7.30;;;23.00;29.70;;;;;;6184723;23;20172;-54
2022/03/23 08:52:08;;;;;;;8.27;7.50;;;23.00;29.60;;;;;;6186222;23;20172;-54
2022/03/23 08:54:36;;;;;;;7.68;7.00;;;23.10;29.60;;;;;;6185986;23;20188;-54
2022/03/23 08:57:03;;;;;;;8.38;7.40;;;23.10;29.50;;;;;;6159576;23;20661;-54
2022/03/23 08:59:31;;;;;;;7.78;6.97;;;23.20;29.50;;;;;;6186183;23;20197;-54
2022/03/23 09:01:58;;;;;;;7.38;6.45;;;23.20;29.40;;;;;;6186535;23;20171;-54
2022/03/23 09:04:25;;;;;;;8.20;7.50;;;23.30;29.40;;;;;;6159608;23;20192;-54
2022/03/23 09:06:52;;;;;;;7.85;7.15;;;23.40;29.40;;;;;;6186055;23;20654;-54
2022/03/23 09:09:21;;;;;;;7.40;6.80;;;23.40;29.30;;;;;;6159639;23;20234;-54
2022/03/23 09:11:49;;;;;;;7.22;6.57;;;23.40;29.30;;;;;;6160578;23;20183;-54
2022/03/23 09:14:16;;;;;;;7.50;6.80;;;23.50;29.30;;;;;;6185866;23;20200;-54
2022/03/23 09:16:43;;;;;;;7.07;6.47;;;23.50;29.30;;;;;;6185983;23;20168;-54
2022/03/23 09:19:12;;;;;;;7.40;6.60;;;23.50;29.20;;;;;;6184339;23;20172;-54
2022/03/23 09:21:39;;;;;;;7.00;6.43;;;23.60;29.10;;;;;;6184405;23;20623;-54
2022/03/23 09:24:06;;;;;;;7.30;6.70;;;23.60;29.20;;;;;;6184204;23;20192;-54
2022/03/23 09:26:35;;;;;;;6.72;6.13;;;23.60;29.10;;;;;;6184362;23;20260;-54
2022/03/23 09:29:03;;;;;;;7.38;6.68;;;23.60;29.00;;;;;;6184532;23;20203;-54
2022/03/23 09:31:30;;;;;;;6.80;6.20;;;23.70;29.10;;;;;;6184225;23;20176;-54
2022/03/23 09:33:58;;;;;;;7.15;6.40;;;23.70;29.00;;;;;;6186079;23;20196;-54
2022/03/23 09:39:06;;;;;;;7.25;6.55;;;23.80;29.00;;;;;;6184305;23;20168;-55
2022/03/23 09:41:35;;;;;;;6.95;6.35;;;23.80;29.00;;;;;;6159629;23;20226;-54
2022/03/23 09:44:02;;;;;;;6.57;5.97;;;23.80;29.00;;;;;;6185657;23;20191;-54
2022/03/23 09:46:32;;;;;;;6.85;6.22;;;23.80;29.00;;;;;;6159463;23;20671;-54
2022/03/23 09:48:59;;;;;;;6.70;6.10;;;23.80;28.90;;;;;;6159142;23;20615;-54
2022/03/23 09:51:27;;;;;;;6.60;6.00;;;23.80;28.90;;;;;;6185727;23;20562;-54
2022/03/23 09:53:54;;;;;;;8.02;6.30;;;23.80;28.90;;;;;;6185583;23;20246;-54
2022/03/23 09:56:21;;;;;;;6.45;5.93;;;23.80;28.90;;;;;;6185612;23;20615;-54
2022/03/23 09:58:50;;;;;;;6.30;5.70;;;23.80;28.90;;;;;;6184219;23;20172;-54
2022/03/23 10:02:03;;;;;;;7.25;6.55;;;23.90;28.90;;;;;;6184259;23;20199;-54
2022/03/23 10:04:58;;;;;;;6.47;5.88;;;23.90;28.90;;;;;;6116514;23;20219;-54
2022/03/23 10:07:28;;;;;;;6.95;6.28;;;23.90;28.90;;;;;;6185499;23;20164;-54
2022/03/23 10:10:36;;;;;;;7.00;6.40;;;23.90;28.90;;;;;;6183914;23;20176;-54
2022/03/23 10:13:54;;;;;;;6.57;6.00;;;23.90;28.90;;;;;;6184127;23;20196;-54
2022/03/23 10:16:53;;;;;;;6.60;6.00;;;23.90;28.90;;;;;;6013264;23;20183;-54
2022/03/23 10:19:21;;;;;;;6.53;6.00;;;23.90;28.90;;;;;;6037390;23;20202;-54
2022/03/23 10:21:49;;;;;;;6.30;5.80;;;23.90;28.90;;;;;;6135213;23;20566;-54
2022/03/23 10:24:33;;;;;;;6.78;6.18;;;23.80;28.90;;;;;;6185153;23;20203;-54
2022/03/23 10:27:05;;;;;;;6.65;6.15;;;23.90;29.00;;;;;;6159015;23;20168;-54
2022/03/23 10:29:32;;;;;;;6.32;5.82;;;23.90;29.00;;;;;;6185597;23;20152;-54
2022/03/23 10:32:05;;;;;;;6.70;6.00;;;23.80;28.90;;;;;;6185258;23;20168;-54
2022/03/23 10:34:49;;;;;;;6.30;5.80;;;23.80;29.00;;;;;;6183686;23;20653;-54
2022/03/23 10:37:24;;;;;;;6.00;5.50;;;23.80;29.00;;;;;;6183671;23;20172;-54
2022/03/23 10:39:51;;;;;;;6.22;5.72;;;23.80;29.10;;;;;;6185430;23;20156;-54
2022/03/23 10:42:20;;;;;;;6.10;5.60;;;23.80;29.10;;;;;;6185243;23;20201;-54
2022/03/23 10:44:47;;;;;;;6.00;5.50;;;23.80;29.20;;;;;;6185248;23;20166;-54
2022/03/23 10:47:31;;;;;;;5.95;5.45;;;23.70;29.20;;;;;;6185654;23;20198;-54
2022/03/23 10:50:05;;;;;;;6.07;5.57;;;23.70;29.20;;;;;;6158944;23;20175;-54
2022/03/23 10:52:33;;;;;;;6.22;5.63;;;23.70;29.30;;;;;;6183615;23;20179;-54
2022/03/23 10:55:01;;;;;;;6.07;5.47;;;23.60;29.30;;;;;;6185411;23;20191;-54
2022/03/23 10:58:10;;;;;;;6.00;5.50;;;23.60;29.40;;;;;;6185278;23;20172;-54
2022/03/23 11:00:38;;;;;;;5.97;5.47;;;23.60;29.50;;;;;;6101435;23;20250;-54
2022/03/23 11:03:08;;;;;;;5.88;5.38;;;23.50;29.50;;;;;;6160566;23;20218;-54
2022/03/23 11:05:36;;;;;;;6.22;5.68;;;23.50;29.50;;;;;;6187141;23;20202;-54
2022/03/23 11:08:08;;;;;;;6.07;5.57;;;23.50;29.60;;;;;;6160722;23;20176;-54
2022/03/23 11:16:09;;;;;;;5.38;4.88;;;23.40;29.80;;;;;;6160633;23;20188;-54
2022/03/23 11:18:37;;;;;;;6.03;5.50;;;23.40;30.00;;;;;;6160644;23;20231;-54
2022/03/23 11:21:04;;;;;;;5.82;5.38;;;23.40;30.00;;;;;;6185414;23;20231;-54
2022/03/23 11:23:33;;;;;;;5.95;5.45;;;23.40;30.00;;;;;;6160415;23;20192;-54
2022/03/23 11:26:01;;;;;;;6.13;5.63;;;23.30;30.00;;;;;;6160687;23;20168;-54
2022/03/23 11:28:28;;;;;;;5.90;5.40;;;23.30;30.00;;;;;;6187261;23;20231;-54
2022/03/23 11:30:56;;;;;;;6.28;5.68;;;23.30;30.00;;;;;;6187341;23;20164;-54
2022/03/23 11:33:25;;;;;;;5.95;5.53;;;23.30;30.00;;;;;;6185333;23;20200;-54
2022/03/23 11:35:54;;;;;;;5.60;5.10;;;23.30;30.00;;;;;;6186995;23;20230;-54
2022/03/23 11:38:22;;;;;;;5.97;5.47;;;23.20;30.00;;;;;;6161056;23;20505;-54
2022/03/23 11:40:50;;;;;;;5.97;5.47;;;23.20;30.10;;;;;;6185432;23;20171;-54
2022/03/23 11:43:18;;;;;;;6.38;5.78;;;23.20;30.10;;;;;;6185326;23;20577;-54
2022/03/23 11:45:46;;;;;;;5.50;5.00;;;23.20;30.30;;;;;;6185301;23;20172;-54
2022/03/23 11:48:21;;;;;;;5.90;5.40;;;23.20;30.30;;;;;;6160619;23;20349;-54
2022/03/23 11:51:05;;;;;;;5.68;5.18;;;23.20;30.30;;;;;;6186923;23;20223;-54
2022/03/23 11:53:36;;;;;;;5.72;5.32;;;23.20;30.40;;;;;;6186097;23;20279;-54
2022/03/23 11:56:05;;;;;;;5.70;5.20;;;23.20;30.50;;;;;;6185198;23;20191;-54
2022/03/23 11:58:37;;;;;;;5.75;5.25;;;23.20;30.50;;;;;;6185085;23;20180;-54
2022/03/23 12:01:09;;;;;;;5.60;5.10;;;23.20;30.50;;;;;;6186966;23;20488;-54
2022/03/23 12:03:53;;;;;;;5.50;5.00;;;23.20;30.60;;;;;;6184982;23;20280;-54
2022/03/23 12:06:23;;;;;;;5.05;4.65;;;23.20;30.70;;;;;;6160316;23;20215;-54
2022/03/23 12:08:51;;;;;;;5.32;4.93;;;23.20;30.70;;;;;;6186216;23;20164;-54
2022/03/23 12:11:32;;;;;;;5.40;4.97;;;23.20;30.70;;;;;;6186781;23;20165;-54
2022/03/23 12:13:59;;;;;;;5.35;4.95;;;23.20;30.80;;;;;;6160189;23;20594;-54
2022/03/23 12:17:00;;;;;;;5.22;4.82;;;23.10;30.60;;;;;;6160244;23;20192;-54
2022/03/23 12:19:28;;;;;;;5.28;4.88;;;23.10;30.80;;;;;;6160080;23;20226;-54
2022/03/23 12:21:59;;;;;;;5.35;4.85;;;23.10;30.90;;;;;;6184920;23;20495;-54
2022/03/23 12:24:28;;;;;;;5.57;5.07;;;23.10;30.90;;;;;;6186753;23;20259;-54
2022/03/23 12:26:56;;;;;;;5.07;4.68;;;23.10;30.90;;;;;;6184938;23;20172;-54
2022/03/23 12:29:26;;;;;;;5.47;4.68;;;23.10;30.90;;;;;;6184947;23;20172;-54
2022/03/23 12:32:03;;;;;;;5.20;4.80;;;23.10;30.90;;;;;;6186388;23;20167;-54
2022/03/23 12:34:30;;;;;;;5.72;5.22;;;23.10;30.60;;;;;;6186583;23;20242;-54
2022/03/23 12:37:08;;;;;;;5.28;4.82;;;23.00;30.50;;;;;;6186611;23;20642;-54
2022/03/23 12:39:37;;;;;;;5.00;4.60;;;23.00;30.90;;;;;;6184880;23;20518;-54
2022/03/23 12:42:26;;;;;;;5.50;5.10;;;23.00;31.00;;;;;;6186434;23;20627;-54
2022/03/23 12:45:05;;;;;;;4.70;4.32;;;23.00;31.10;;;;;;6159788;23;20176;-54
2022/03/23 12:58:31;;;;;;;4.80;4.40;;;23.10;31.40;;;;;;6191086;23;20512;-71
2022/03/23 13:01:09;;;;;;;5.65;5.13;;;23.10;31.80;;;;;;6190649;23;20186;-72
2022/03/23 13:03:54;;;;;;;5.55;5.00;;;23.00;30.90;;;;;;6190655;23;20255;-72
2022/03/23 13:06:31;;;;;;;5.45;4.97;;;23.10;31.00;;;;;;6217655;23;20226;-72
2022/03/23 13:08:59;;;;;;;6.15;5.55;;;23.10;30.90;;;;;;6190393;23;20199;-73
2022/03/23 13:13:57;;;;;;;5.68;5.18;;;23.10;30.70;;;;;;6131860;23;20177;-73
2022/03/23 13:16:25;;;;;;;5.53;5.03;;;23.00;30.40;;;;;;6156201;23;20197;-71
2022/03/23 13:18:56;;;;;;;5.40;4.93;;;23.00;30.70;;;;;;6131107;23;20235;-71
2022/03/23 13:21:24;;;;;;;4.68;4.28;;;23.10;30.60;;;;;;6131433;23;20604;-71
2022/03/23 13:23:53;;;;;;;5.85;4.60;;;23.10;30.90;;;;;;6131169;23;20616;-71
2022/03/23 13:26:22;;;;;;;5.30;4.80;;;23.10;31.10;;;;;;6131442;23;20539;-71
2022/03/23 13:28:50;;;;;;;4.90;4.45;;;23.00;31.00;;;;;;6131458;23;20220;-71
2022/03/23 13:31:19;;;;;;;5.00;4.50;;;23.10;31.20;;;;;;6131427;23;20176;-71
2022/03/23 13:33:47;;;;;;;4.65;4.25;;;23.00;31.20;;;;;;6131935;23;20256;-71
2022/03/23 13:36:16;;;;;;;4.90;4.50;;;23.00;31.30;;;;;;6131353;23;20582;-71
2022/03/23 13:38:43;;;;;;;4.38;4.07;;;23.00;31.20;;;;;;6131515;23;20200;-71